Skip Navigation Links
NOAA logo - Click to go to the NOAA homepage
NOAA's National Weather Service
Alaska Aviation Weather Unit
  NWS logo - Click to go to the NWS homepage
Left Navbar Graphic     21 AKDT = 05 GMT

   
NOAA is celebrating 200 years of science, service, and stewardship. Visit the NOAA 200th celebration Web site to learn more.
USA.gov is the U.S. Government's official Web portal to all Federal, state and local government Web resources and services.
Facebook
NWS on Facebook

AAWU Home :: Display TAF Add Bookmark
PATL 262324Z 01007KT 360V060 10SM -RA BKN042 08/01 A2955=

METAR PATL 262355Z AUTO VRB03KT 10SM OVC046 09/01 A2955=

PATL 270017Z AUTO VRB05KT 10SM -SHRA FEW016 BKN044 08/03 A2956=

PATL 270047Z AUTO 00000KT 10SM SCT039 BKN075 BKN100 09/02 A2955=

METAR PATL 270055Z AUTO VRB01KT 10SM FEW050 BKN075 09/01 A2955=

METAR PATL 270155Z AUTO 00000KT 10SM -SHRA SCT039 BKN080 09/02 A2954=

PATL 270202Z AUTO 00000KT 10SM FEW039 BKN080 09/01 A2954=

METAR PATL 270255Z AUTO 07010KT 040V110 10SM -RA OVC044 09/02 A2955=

METAR PATL 270355Z AUTO 00000KT 10SM -SHRA OVC041 07/03 A2956=

PATL 270447Z AUTO 24002KT 10SM OVC044 07/03 A2957=


NOAA's National Weather Service
Alaska Aviation Weather Unit
6930 Sand Lake Road
Anchorage, AK 99502-1845
Disclaimer
Credits
Glossary
Privacy Policy
About Us
Career Opportunities
Contact AAWU Internet Services Site last modified: April, 17th 2012